createdAt,value
2022-08-26T00:00:56.313Z,100973.60
2022-08-26T00:03:25.210Z,100979.60
2022-08-26T00:05:53.943Z,100969.00
2022-08-26T00:08:22.826Z,100970.00
2022-08-26T00:10:51.514Z,100963.40
2022-08-26T00:13:20.204Z,100963.00
2022-08-26T00:15:50.631Z,100959.40
2022-08-26T00:18:22.598Z,100956.60
2022-08-26T00:20:51.834Z,100957.80
2022-08-26T00:23:20.805Z,100958.80
2022-08-26T00:25:54.243Z,100954.80
2022-08-26T00:28:25.735Z,100957.20
2022-08-26T00:30:54.525Z,100955.80
2022-08-26T00:33:23.619Z,100959.00
2022-08-26T00:35:52.514Z,100956.60
2022-08-26T00:38:22.922Z,100956.60
2022-08-26T00:40:56.100Z,100951.00
2022-08-26T00:43:26.594Z,100950.40
2022-08-26T00:46:07.773Z,100948.40
2022-08-26T00:48:38.792Z,100948.00
2022-08-26T00:51:22.040Z,100949.40
2022-08-26T00:53:57.802Z,100946.00
2022-08-26T00:56:50.819Z,100943.40
2022-08-26T00:59:20.738Z,100945.20
2022-08-26T01:01:49.643Z,100947.00
2022-08-26T01:04:23.125Z,100943.60
2022-08-26T01:06:54.974Z,100939.00
2022-08-26T01:09:24.404Z,100935.80
2022-08-26T01:11:57.515Z,100931.00
2022-08-26T01:14:36.712Z,100929.40
2022-08-26T01:17:07.802Z,100928.00
2022-08-26T01:20:09.172Z,100932.00
2022-08-26T01:23:07.188Z,100929.40
2022-08-26T01:25:46.807Z,100926.40
2022-08-26T01:28:23.503Z,100927.00
2022-08-26T01:30:55.229Z,100926.00
2022-08-26T01:33:53.440Z,100931.60
2022-08-26T01:36:22.880Z,100929.40
2022-08-26T01:38:53.274Z,100932.20
2022-08-26T01:41:27.266Z,100932.20
2022-08-26T01:43:58.992Z,100927.40
2022-08-26T01:46:30.025Z,100926.40
2022-08-26T01:49:04.031Z,100928.20
2022-08-26T01:51:39.132Z,100928.20
2022-08-26T01:54:11.931Z,100924.20
2022-08-26T01:56:42.755Z,100922.00
2022-08-26T01:59:17.261Z,100921.40
2022-08-26T02:01:46.438Z,100921.80
2022-08-26T02:04:33.842Z,100924.80
2022-08-26T02:07:09.011Z,100920.00
2022-08-26T02:09:41.202Z,100923.80
2022-08-26T02:12:12.863Z,100928.00
2022-08-26T02:14:51.286Z,100928.40
2022-08-26T02:17:26.625Z,100928.40
2022-08-26T02:19:56.449Z,100925.80
2022-08-26T02:22:25.837Z,100927.00
2022-08-26T02:25:07.473Z,100927.80
2022-08-26T02:27:37.445Z,100919.20
2022-08-26T02:30:22.822Z,100924.60
2022-08-26T02:32:52.551Z,100925.00
2022-08-26T02:35:24.172Z,100920.20
2022-08-26T02:37:53.908Z,100918.60
2022-08-26T02:40:28.386Z,100917.60
2022-08-26T02:42:58.138Z,100914.60
2022-08-26T02:45:29.109Z,100912.00
2022-08-26T02:47:59.696Z,100914.40
2022-08-26T02:50:29.216Z,100913.80
2022-08-26T02:52:57.905Z,100913.00
2022-08-26T02:55:26.546Z,100909.00
2022-08-26T02:57:55.181Z,100906.00
2022-08-26T03:00:24.219Z,100904.40
2022-08-26T03:02:53.877Z,100902.20
2022-08-26T03:05:24.134Z,100902.20
2022-08-26T03:07:53.299Z,100900.60
2022-08-26T03:10:23.618Z,100899.20
2022-08-26T03:12:57.021Z,100903.00
2022-08-26T03:15:27.305Z,100901.00
2022-08-26T03:17:56.193Z,100896.40
2022-08-26T03:20:25.924Z,100891.20
2022-08-26T03:22:56.243Z,100891.20
2022-08-26T03:25:26.055Z,100885.40
2022-08-26T03:27:54.782Z,100887.60
2022-08-26T03:30:44.753Z,100886.60
2022-08-26T03:33:15.354Z,100884.00
2022-08-26T03:35:45.476Z,100883.80
2022-08-26T03:38:15.330Z,100885.40
2022-08-26T03:40:44.685Z,100876.40
2022-08-26T03:43:14.230Z,100876.00
2022-08-26T03:45:43.744Z,100876.40
2022-08-26T03:48:15.090Z,100877.20
2022-08-26T03:50:43.883Z,100878.20
2022-08-26T03:53:13.359Z,100877.20
2022-08-26T03:55:43.190Z,100880.00
2022-08-26T03:58:12.092Z,100879.40
2022-08-26T04:00:40.880Z,100880.60
2022-08-26T04:03:15.656Z,100875.40
2022-08-26T04:05:46.855Z,100876.20
2022-08-26T04:08:16.464Z,100878.20
2022-08-26T04:10:45.049Z,100876.20
2022-08-26T04:13:14.147Z,100877.40
2022-08-26T04:15:45.023Z,100874.80
2022-08-26T04:18:13.669Z,100874.40
2022-08-26T04:20:42.768Z,100875.00
2022-08-26T04:23:11.963Z,100877.60
2022-08-26T04:25:41.247Z,100873.20
2022-08-26T04:28:10.834Z,100872.80
2022-08-26T04:30:40.733Z,100867.80
2022-08-26T04:33:14.097Z,100871.60
2022-08-26T04:35:44.512Z,100870.60
2022-08-26T04:38:13.198Z,100877.00
2022-08-26T04:40:46.992Z,100877.80
2022-08-26T04:43:15.904Z,100876.00
2022-08-26T04:45:44.686Z,100881.60
2022-08-26T04:48:16.771Z,100881.60
2022-08-26T04:50:49.405Z,100878.00
2022-08-26T04:53:18.325Z,100874.80
2022-08-26T04:55:48.492Z,100875.80
2022-08-26T04:58:20.556Z,100874.60
2022-08-26T05:00:51.500Z,100870.80
2022-08-26T05:03:21.424Z,100872.60
2022-08-26T05:05:51.283Z,100870.80
2022-08-26T05:08:22.615Z,100869.00
2022-08-26T05:10:56.484Z,100873.80
2022-08-26T05:13:28.163Z,100872.20
2022-08-26T05:16:00.575Z,100876.60
2022-08-26T05:18:30.691Z,100876.60
2022-08-26T05:20:59.275Z,100877.20
2022-08-26T05:23:28.913Z,100880.40
2022-08-26T05:25:59.369Z,100872.60
2022-08-26T05:28:30.519Z,100872.40
2022-08-26T05:30:59.400Z,100872.80
2022-08-26T05:33:29.778Z,100870.20
2022-08-26T05:35:58.464Z,100868.00
2022-08-26T05:38:30.321Z,100867.00
2022-08-26T05:40:59.421Z,100867.40
2022-08-26T05:43:29.130Z,100864.60
2022-08-26T05:46:07.988Z,100871.60
2022-08-26T05:48:37.366Z,100872.00
2022-08-26T05:51:12.192Z,100867.00
2022-08-26T05:53:43.988Z,100866.80
2022-08-26T05:56:28.007Z,100863.20
2022-08-26T05:58:58.496Z,100865.20
2022-08-26T06:01:29.936Z,100857.00
2022-08-26T06:04:02.025Z,100857.20
2022-08-26T06:06:34.012Z,100855.80
2022-08-26T06:09:09.442Z,100853.40
2022-08-26T06:11:40.598Z,100853.20
2022-08-26T06:14:09.694Z,100853.00
2022-08-26T06:16:41.815Z,100853.20
2022-08-26T06:19:13.431Z,100856.20
2022-08-26T06:21:54.122Z,100851.20
2022-08-26T06:24:42.331Z,100842.20
2022-08-26T06:27:15.170Z,100837.00
2022-08-26T06:29:44.209Z,100837.20
2022-08-26T06:32:13.411Z,100836.40
2022-08-26T06:34:42.297Z,100834.00
2022-08-26T06:37:10.882Z,100836.80
2022-08-26T06:39:41.294Z,100834.00
2022-08-26T06:42:11.851Z,100829.80
2022-08-26T06:44:42.072Z,100831.60
2022-08-26T06:47:13.513Z,100830.20
2022-08-26T06:49:42.408Z,100832.80
2022-08-26T06:52:13.242Z,100827.60
2022-08-26T06:54:44.269Z,100826.00
2022-08-26T06:57:14.255Z,100828.00
2022-08-26T06:59:45.549Z,100824.40
2022-08-26T07:02:15.537Z,100818.20
2022-08-26T07:04:47.781Z,100821.60
2022-08-26T07:07:16.833Z,100820.20
2022-08-26T07:09:46.236Z,100823.40
2022-08-26T07:12:15.146Z,100819.80
2022-08-26T07:14:47.275Z,100821.80
2022-08-26T07:17:17.192Z,100820.80
2022-08-26T07:19:49.359Z,100821.00
2022-08-26T07:22:19.216Z,100818.80
2022-08-26T07:24:47.982Z,100815.00
2022-08-26T07:27:17.898Z,100816.80
2022-08-26T07:29:47.406Z,100817.60
2022-08-26T07:32:20.861Z,100815.60
2022-08-26T07:34:51.946Z,100819.40
2022-08-26T07:37:20.940Z,100819.40
2022-08-26T07:39:49.784Z,100818.40
2022-08-26T07:42:20.633Z,100819.80
2022-08-26T07:44:49.678Z,100821.20
2022-08-26T07:47:25.287Z,100824.00
2022-08-26T07:49:58.203Z,100828.20
2022-08-26T07:52:30.410Z,100824.60
2022-08-26T07:55:01.770Z,100832.20
2022-08-26T07:57:30.915Z,100828.80
2022-08-26T08:00:00.216Z,100828.00
2022-08-26T08:02:30.605Z,100824.00
2022-08-26T08:05:00.099Z,100825.80
2022-08-26T08:07:44.301Z,100824.60
2022-08-26T08:10:25.167Z,100828.60
2022-08-26T08:12:58.900Z,100823.60
2022-08-26T08:15:31.457Z,100824.60
2022-08-26T08:18:01.009Z,100824.00
2022-08-26T08:20:30.347Z,100823.20
2022-08-26T08:23:03.622Z,100820.80
2022-08-26T08:25:34.717Z,100821.00
2022-08-26T08:28:03.812Z,100821.00
2022-08-26T08:30:33.016Z,100817.80
2022-08-26T08:33:03.936Z,100811.20
2022-08-26T08:35:33.230Z,100813.60
2022-08-26T08:38:04.150Z,100814.20
2022-08-26T08:40:33.209Z,100809.00
2022-08-26T08:43:13.944Z,100807.80
2022-08-26T08:45:55.062Z,100802.20
2022-08-26T08:48:34.355Z,100803.40
2022-08-26T08:51:27.822Z,100796.60
2022-08-26T08:53:57.636Z,100797.80
2022-08-26T08:56:32.466Z,100797.00
2022-08-26T08:59:18.568Z,100790.60
2022-08-26T09:02:11.628Z,100792.80
2022-08-26T09:05:28.845Z,100793.60
2022-08-26T09:08:15.861Z,100791.00
2022-08-26T09:10:59.878Z,100791.60
2022-08-26T09:13:31.695Z,100785.80
2022-08-26T09:16:14.909Z,100784.60
2022-08-26T09:19:19.067Z,100784.20
2022-08-26T09:21:57.156Z,100782.60
2022-08-26T09:24:30.833Z,100778.60
2022-08-26T09:27:00.638Z,100774.60
2022-08-26T09:29:41.215Z,100769.80
2022-08-26T09:32:25.561Z,100771.40
2022-08-26T09:35:02.297Z,100774.20
2022-08-26T09:40:34.968Z,100774.60
2022-08-26T09:43:16.218Z,100769.60
2022-08-26T09:46:15.102Z,100766.20
2022-08-26T09:48:44.719Z,100771.40
2022-08-26T09:51:27.129Z,100768.20
2022-08-26T09:54:03.520Z,100763.40
2022-08-26T09:56:39.494Z,100762.80
2022-08-26T09:59:12.849Z,100753.80
2022-08-26T10:01:44.901Z,100751.80
2022-08-26T10:04:26.944Z,100746.40
2022-08-26T10:07:04.203Z,100745.20
2022-08-26T10:09:39.363Z,100743.60
2022-08-26T10:12:18.175Z,100744.60
2022-08-26T10:14:58.076Z,100734.60
2022-08-26T10:17:52.200Z,100733.20
2022-08-26T10:20:29.180Z,100738.20
2022-08-26T10:23:17.641Z,100730.00
2022-08-26T10:26:16.322Z,100726.40
2022-08-26T10:29:26.377Z,100725.40
2022-08-26T10:32:03.399Z,100724.00
2022-08-26T10:34:34.039Z,100714.80
2022-08-26T10:37:18.659Z,100712.80
2022-08-26T10:39:59.373Z,100709.60
2022-08-26T10:42:37.436Z,100706.20
2022-08-26T10:45:17.050Z,100703.00
2022-08-26T10:48:00.407Z,100697.00
2022-08-26T10:50:43.631Z,100703.20
2022-08-26T10:53:57.040Z,100694.40
2022-08-26T10:56:44.088Z,100691.40
2022-08-26T10:59:21.380Z,100694.60
2022-08-26T11:01:52.788Z,100686.20
2022-08-26T11:04:55.408Z,100678.40
2022-08-26T11:07:42.732Z,100674.20
2022-08-26T11:10:17.461Z,100671.60
2022-08-26T11:12:49.190Z,100660.20
2022-08-26T11:15:24.608Z,100658.40
2022-08-26T11:17:55.713Z,100655.40
2022-08-26T11:20:39.340Z,100650.40
2022-08-26T11:23:13.770Z,100648.20
2022-08-26T11:26:10.921Z,100644.20
2022-08-26T11:28:45.131Z,100644.80
2022-08-26T11:31:39.879Z,100643.60
2022-08-26T11:34:14.303Z,100642.40
2022-08-26T11:36:55.844Z,100638.00
2022-08-26T11:39:55.029Z,100632.20
2022-08-26T11:42:42.621Z,100625.80
2022-08-26T11:45:43.569Z,100617.60
2022-08-26T11:48:22.746Z,100613.40
2022-08-26T11:50:58.542Z,100602.80
2022-08-26T11:53:31.134Z,100612.40
2022-08-26T11:56:08.371Z,100607.60
2022-08-26T11:58:43.508Z,100608.60
2022-08-26T12:01:21.819Z,100604.20
2022-08-26T12:03:52.788Z,100597.00
2022-08-26T12:06:29.593Z,100595.00
2022-08-26T12:09:05.751Z,100596.20
2022-08-26T12:11:37.530Z,100598.80
2022-08-26T12:14:22.015Z,100592.20
2022-08-26T12:16:54.340Z,100585.40
2022-08-26T12:19:25.289Z,100577.00
2022-08-26T12:22:17.571Z,100579.60
2022-08-26T12:25:03.764Z,100578.20
2022-08-26T12:27:42.215Z,100572.60
2022-08-26T12:30:26.186Z,100572.00
2022-08-26T12:33:19.347Z,100569.20
2022-08-26T12:35:56.286Z,100569.20
2022-08-26T12:38:28.461Z,100572.80
2022-08-26T12:40:57.947Z,100563.00
2022-08-26T12:43:45.472Z,100559.80
2022-08-26T12:46:25.151Z,100554.00
2022-08-26T12:48:54.013Z,100545.80
2022-08-26T12:51:27.314Z,100546.60
2022-08-26T12:53:57.001Z,100540.80
2022-08-26T12:56:39.942Z,100545.20
2022-08-26T12:59:25.383Z,100541.60
2022-08-26T13:01:54.686Z,100536.80
2022-08-26T13:04:44.314Z,100541.00
2022-08-26T13:07:19.229Z,100537.60
2022-08-26T13:09:50.432Z,100540.60
2022-08-26T13:12:38.434Z,100541.00
2022-08-26T13:15:08.234Z,100533.40
2022-08-26T13:17:38.247Z,100535.00
2022-08-26T13:20:08.099Z,100539.80
2022-08-26T13:22:37.429Z,100537.00
2022-08-26T13:25:06.909Z,100535.80
2022-08-26T13:27:35.762Z,100534.40
2022-08-26T13:30:06.921Z,100533.40
2022-08-26T13:32:36.983Z,100534.00
2022-08-26T13:35:07.422Z,100529.00
2022-08-26T13:37:37.162Z,100531.60
2022-08-26T13:40:07.938Z,100526.40
2022-08-26T13:42:37.199Z,100521.40
2022-08-26T13:45:19.253Z,100512.40
2022-08-26T13:47:48.293Z,100517.80
2022-08-26T13:50:18.188Z,100518.20
2022-08-26T13:52:47.204Z,100515.60
2022-08-26T13:55:16.873Z,100508.80
2022-08-26T13:57:46.318Z,100507.40
2022-08-26T14:00:16.201Z,100504.40
2022-08-26T14:02:45.431Z,100509.20
2022-08-26T14:05:14.713Z,100507.20
2022-08-26T14:07:43.727Z,100513.60
2022-08-26T14:10:13.131Z,100521.80
2022-08-26T14:12:42.435Z,100517.20
2022-08-26T14:15:13.206Z,100515.00
2022-08-26T14:17:42.453Z,100516.40
2022-08-26T14:20:20.065Z,100509.60
2022-08-26T14:23:12.536Z,100504.40
2022-08-26T14:25:37.509Z,100499.60
2022-08-26T14:28:06.195Z,100496.40
2022-08-26T14:30:35.597Z,100498.40
2022-08-26T14:33:04.390Z,100488.80
2022-08-26T14:35:33.189Z,100481.00
2022-08-26T14:38:01.973Z,100478.40
2022-08-26T14:40:34.019Z,100479.20
2022-08-26T14:43:07.901Z,100481.20
2022-08-26T14:48:14.747Z,100467.20
2022-08-26T14:50:43.432Z,100459.00
2022-08-26T14:53:30.951Z,100454.80
2022-08-26T14:56:00.050Z,100458.60
2022-08-26T14:58:34.780Z,100459.20
2022-08-26T15:01:04.391Z,100467.80
2022-08-26T15:03:33.481Z,100468.00
2022-08-26T15:06:02.578Z,100471.80
2022-08-26T15:08:36.896Z,100473.00
2022-08-26T15:11:06.299Z,100474.00
2022-08-26T15:13:36.367Z,100478.20
2022-08-26T15:16:05.944Z,100486.40
2022-08-26T15:18:34.920Z,100489.80
2022-08-26T15:21:06.047Z,100485.60
2022-08-26T15:23:39.630Z,100487.00
2022-08-26T15:26:11.550Z,100486.60
2022-08-26T15:28:41.939Z,100483.20
2022-08-26T15:31:11.022Z,100479.80
2022-08-26T15:33:40.971Z,100485.00
2022-08-26T15:36:10.702Z,100489.00
2022-08-26T15:38:42.954Z,100492.60
2022-08-26T15:41:12.397Z,100500.80
2022-08-26T15:43:42.269Z,100502.00
2022-08-26T15:46:12.492Z,100520.40
2022-08-26T15:48:41.797Z,100558.40
2022-08-26T15:51:24.923Z,100574.00
2022-08-26T15:53:58.747Z,100581.80
2022-08-26T15:56:34.717Z,100584.60
2022-08-26T15:59:08.087Z,100594.20
2022-08-26T16:01:37.402Z,100606.20
2022-08-26T16:04:07.283Z,100618.80
2022-08-26T16:06:40.402Z,100629.20
2022-08-26T16:09:10.711Z,100636.40
2022-08-26T16:11:43.293Z,100636.00
2022-08-26T16:14:12.216Z,100635.80
2022-08-26T16:16:42.506Z,100633.20
2022-08-26T16:19:12.133Z,100636.60
2022-08-26T16:21:42.337Z,100637.60
2022-08-26T16:24:12.530Z,100633.80
2022-08-26T16:26:44.428Z,100635.60
2022-08-26T16:29:16.491Z,100629.20
2022-08-26T16:31:46.198Z,100629.00
2022-08-26T16:34:14.879Z,100619.40
2022-08-26T16:36:44.197Z,100613.60
2022-08-26T16:39:14.294Z,100615.20
2022-08-26T16:41:43.096Z,100617.40
2022-08-26T16:44:12.712Z,100614.80
2022-08-26T16:46:42.218Z,100607.20
2022-08-26T16:49:11.103Z,100598.40
2022-08-26T16:51:40.407Z,100599.00
2022-08-26T16:54:09.605Z,100599.20
2022-08-26T16:56:39.231Z,100586.60
2022-08-26T16:59:11.994Z,100585.20
2022-08-26T17:01:41.627Z,100596.00
2022-08-26T17:04:10.700Z,100600.00
2022-08-26T17:06:39.590Z,100601.80
2022-08-26T17:09:09.067Z,100601.20
2022-08-26T17:11:38.193Z,100595.40
2022-08-26T17:14:07.244Z,100597.40
2022-08-26T17:16:35.976Z,100595.40
2022-08-26T17:19:06.077Z,100594.00
2022-08-26T17:21:36.902Z,100588.80
2022-08-26T17:24:07.224Z,100590.20
2022-08-26T17:26:37.577Z,100584.00
2022-08-26T17:29:07.661Z,100586.20
2022-08-26T17:31:36.281Z,100584.40
2022-08-26T17:34:05.381Z,100580.00
2022-08-26T17:36:34.475Z,100580.40
2022-08-26T17:39:03.365Z,100580.60
2022-08-26T17:41:32.326Z,100579.00
2022-08-26T17:44:00.947Z,100577.20
2022-08-26T17:46:31.004Z,100580.40
2022-08-26T17:49:02.108Z,100584.60
2022-08-26T17:51:32.401Z,100592.40
2022-08-26T17:54:01.222Z,100591.00
2022-08-26T17:56:31.750Z,100590.80
2022-08-26T17:59:02.377Z,100586.60
2022-08-26T18:01:33.301Z,100586.00
2022-08-26T18:04:03.099Z,100579.00
2022-08-26T18:06:33.462Z,100573.40
2022-08-26T18:09:03.377Z,100572.60
2022-08-26T18:11:33.088Z,100567.00
2022-08-26T18:14:01.980Z,100568.80
2022-08-26T18:16:34.572Z,100568.40
2022-08-26T18:19:04.694Z,100566.80
2022-08-26T18:21:34.709Z,100556.80
2022-08-26T18:24:04.606Z,100553.80
2022-08-26T18:26:39.071Z,100545.20
2022-08-26T18:29:08.906Z,100538.80
2022-08-26T18:31:37.942Z,100541.00
2022-08-26T18:34:07.551Z,100542.40
2022-08-26T18:36:38.679Z,100544.80
2022-08-26T18:39:09.686Z,100542.00
2022-08-26T18:41:47.749Z,100537.40
2022-08-26T18:44:19.392Z,100536.00
2022-08-26T18:46:50.240Z,100535.00
2022-08-26T18:49:21.902Z,100528.60
2022-08-26T18:51:52.624Z,100536.20
2022-08-26T18:54:22.031Z,100537.20
2022-08-26T18:56:51.230Z,100539.60
2022-08-26T18:59:20.241Z,100544.20
2022-08-26T19:01:59.990Z,100542.00
2022-08-26T19:04:28.965Z,100542.00
2022-08-26T19:06:57.754Z,100540.40
2022-08-26T19:09:27.467Z,100541.20
2022-08-26T19:14:31.700Z,100542.00
2022-08-26T19:17:01.950Z,100547.80
2022-08-26T19:19:32.146Z,100549.20
2022-08-26T19:22:02.386Z,100541.40
2022-08-26T19:24:33.499Z,100542.40
2022-08-26T19:27:04.242Z,100545.60
2022-08-26T19:29:36.825Z,100548.80
2022-08-26T19:32:06.435Z,100558.40
2022-08-26T19:34:36.640Z,100558.60
2022-08-26T19:37:05.755Z,100562.20
2022-08-26T19:39:34.748Z,100559.60
2022-08-26T19:42:03.741Z,100560.20
2022-08-26T19:44:54.034Z,100563.20
2022-08-26T19:47:24.872Z,100559.60
2022-08-26T19:49:57.884Z,100561.40
2022-08-26T19:52:29.816Z,100559.20
2022-08-26T19:55:03.889Z,100562.20
2022-08-26T19:57:37.541Z,100556.60
2022-08-26T20:00:13.358Z,100563.00
2022-08-26T20:02:44.929Z,100559.80
2022-08-26T20:05:16.797Z,100563.20
2022-08-26T20:07:48.383Z,100566.40
2022-08-26T20:10:25.064Z,100568.80
2022-08-26T20:12:56.135Z,100569.20
2022-08-26T20:15:28.577Z,100567.40
2022-08-26T20:17:58.645Z,100564.60
2022-08-26T20:20:57.478Z,100577.80
2022-08-26T20:23:26.907Z,100590.40
2022-08-26T20:25:58.377Z,100605.80
2022-08-26T20:28:30.251Z,100614.80
2022-08-26T20:31:03.504Z,100610.00
2022-08-26T20:33:46.097Z,100609.40
2022-08-26T20:36:17.510Z,100606.80
2022-08-26T20:38:51.273Z,100598.40
2022-08-26T20:41:25.223Z,100618.00
2022-08-26T20:43:56.741Z,100614.60
2022-08-26T20:46:28.417Z,100618.00
2022-08-26T20:49:00.442Z,100624.00
2022-08-26T20:51:31.694Z,100619.40
2022-08-26T20:54:02.984Z,100625.00
2022-08-26T20:56:34.842Z,100617.80
2022-08-26T20:59:07.288Z,100625.00
2022-08-26T21:01:42.345Z,100634.40
2022-08-26T21:04:16.286Z,100643.80
2022-08-26T21:06:50.786Z,100655.60
2022-08-26T21:09:23.469Z,100666.00
2022-08-26T21:11:53.783Z,100654.80
2022-08-26T21:14:26.005Z,100647.20
2022-08-26T21:16:55.183Z,100654.00
2022-08-26T21:19:24.107Z,100644.00
2022-08-26T21:21:52.913Z,100621.60
2022-08-26T21:24:21.890Z,100616.20
2022-08-26T21:26:50.998Z,100611.20
2022-08-26T21:29:22.296Z,100602.20
2022-08-26T21:31:51.175Z,100598.00
2022-08-26T21:34:20.901Z,100586.80
2022-08-26T21:36:50.536Z,100583.60
2022-08-26T21:39:19.235Z,100570.20
2022-08-26T21:41:48.330Z,100570.40
2022-08-26T21:44:18.860Z,100567.60
2022-08-26T21:46:47.752Z,100557.20
2022-08-26T21:49:17.722Z,100541.00
2022-08-26T21:51:48.971Z,100533.60
2022-08-26T21:54:18.832Z,100532.20
2022-08-26T21:56:48.551Z,100535.80
2022-08-26T21:59:19.295Z,100531.80
2022-08-26T22:01:48.161Z,100531.20
2022-08-26T22:04:18.451Z,100522.80
2022-08-26T22:06:53.755Z,100522.00
2022-08-26T22:09:27.383Z,100512.80
2022-08-26T22:11:57.233Z,100506.00
2022-08-26T22:14:30.749Z,100505.00
2022-08-26T22:17:00.422Z,100504.20
2022-08-26T22:19:32.104Z,100503.80
2022-08-26T22:22:03.979Z,100501.60
2022-08-26T22:24:32.875Z,100496.40
2022-08-26T22:27:01.763Z,100503.20
2022-08-26T22:29:30.887Z,100506.40
2022-08-26T22:32:00.331Z,100507.20
2022-08-26T22:34:29.154Z,100495.00
2022-08-26T22:36:57.943Z,100490.00
2022-08-26T22:39:27.165Z,100483.00
2022-08-26T22:41:57.159Z,100485.40
2022-08-26T22:44:26.051Z,100495.00
2022-08-26T22:46:54.843Z,100494.40
2022-08-26T22:49:25.010Z,100500.40
2022-08-26T22:51:54.263Z,100501.60
2022-08-26T22:54:23.052Z,100503.60
2022-08-26T22:56:51.741Z,100512.60
2022-08-26T22:59:20.425Z,100518.60
2022-08-26T23:01:49.726Z,100529.00
2022-08-26T23:04:19.131Z,100528.00
2022-08-26T23:06:48.178Z,100532.00
2022-08-26T23:09:19.635Z,100529.20
2022-08-26T23:11:49.053Z,100531.20
2022-08-26T23:14:19.614Z,100537.00
2022-08-26T23:16:48.574Z,100543.20
2022-08-26T23:19:21.798Z,100546.40
2022-08-26T23:21:51.099Z,100548.60
2022-08-26T23:24:20.208Z,100557.60
2022-08-26T23:26:49.703Z,100561.00
2022-08-26T23:29:18.798Z,100571.60
2022-08-26T23:31:47.736Z,100579.60
2022-08-26T23:34:35.030Z,100573.60
2022-08-26T23:37:06.197Z,100565.00
2022-08-26T23:39:36.982Z,100562.40
2022-08-26T23:42:06.985Z,100551.20
2022-08-26T23:44:35.700Z,100554.60
2022-08-26T23:47:05.263Z,100563.00
2022-08-26T23:49:35.887Z,100564.60
2022-08-26T23:52:25.621Z,100564.20
2022-08-26T23:54:54.614Z,100562.40
2022-08-26T23:57:25.966Z,100560.60
2022-08-26T23:59:54.859Z,100563.60
